»·PEaware :: AAL211 KPSP-KSEA

AAL211 :: KPSP-KSEA

FLIGHT INFORMATION

Flight Status: Arrived
Operator:
American Airlines
More flights by this operator :: More flights under this callsign
Pilot: Robert M. (1649)
Aircraft: BOEING 737-800
(B738)
More flights by this aircraft type
Origin: KPSP Palm Springs Intl
United States
Destination: KSEA Seattle-Tacoma Intl
United States
More flights between these airports :: More routes between these airports
Route: +CATH1 PSP V386 PMD LANDO PINNI WNDEL BTG BTG HAWKZ5
File this flight plan on PilotEdge
Remarks:
Altitude:
(Current/Filed)
38,000ft
Speed:
(Current/Filed)
450kts
Departed: 06-Jun-17 10:42 AM
Arrived: 06-Jun-17 12:56 PM
Distance/Time
Traveled:
858nm/2:14
Distance/Time
To Go:
Arrived

Flight Plot

Page will automatically refresh every two minutes.

Flight plan parsing failed; only flown route is shown


Map Options




Map Legend


Flown Route
Filed Route
Departure Airport
Arrival Airport
Navaid (VOR, NDB)
Fix

Horizontal Profiles

Position Reports

Time Latitude Longitude Heading Altitude Ground
Speed
06-Jun-17 10:32 33.823828 -116.506542 205 486ft 0kts
06-Jun-17 10:33 33.823828 -116.506542 205 486ft 0kts
06-Jun-17 10:34 33.823828 -116.506542 205 486ft 0kts
06-Jun-17 10:35 33.824385 -116.506416 148 486ft 0kts
06-Jun-17 10:36 33.824385 -116.506416 148 486ft 0kts
06-Jun-17 10:37 33.824385 -116.506416 148 486ft 0kts
06-Jun-17 10:38 33.824385 -116.506416 148 486ft 0kts
06-Jun-17 10:39 33.824385 -116.506416 148 486ft 0kts
06-Jun-17 10:40 33.824385 -116.506416 148 486ft 0kts
06-Jun-17 10:41 33.824067 -116.506151 140 486ft 13kts
06-Jun-17 10:42 33.821838 -116.502617 142 486ft 17kts
06-Jun-17 10:43 33.818490 -116.499462 117 486ft 13kts
06-Jun-17 10:44 33.820885 -116.499816 321 486ft 76kts
06-Jun-17 10:45 33.861401 -116.536099 322 3429ft 209kts
06-Jun-17 10:46 33.907967 -116.519475 80 6809ft 224kts
06-Jun-17 10:47 33.956738 -116.477537 12 10243ft 246kts
06-Jun-17 10:48 34.025506 -116.461608 1 12815ft 257kts
06-Jun-17 10:49 34.072050 -116.518398 288 13304ft 276kts
06-Jun-17 10:50 34.105883 -116.613708 290 15637ft 341kts
06-Jun-17 10:51 34.147453 -116.727508 291 17823ft 396kts
06-Jun-17 10:52 34.192864 -116.851100 291 20768ft 412kts
06-Jun-17 10:53 34.240007 -116.979943 291 23364ft 425kts
06-Jun-17 10:54 34.288429 -117.112630 291 25465ft 439kts
06-Jun-17 10:55 34.338166 -117.249332 291 27265ft 451kts
06-Jun-17 10:56 34.388551 -117.388163 290 29410ft 448kts
06-Jun-17 10:57 34.438286 -117.525748 290 31470ft 443kts
06-Jun-17 10:58 34.487552 -117.662386 290 33221ft 442kts
06-Jun-17 10:59 34.536451 -117.798438 290 34746ft 440kts
06-Jun-17 11:00 34.585005 -117.933924 290 36067ft 437kts
06-Jun-17 11:01 34.633877 -118.068953 295 37187ft 437kts
06-Jun-17 11:02 34.713519 -118.181944 307 37976ft 443kts
06-Jun-17 11:03 34.791827 -118.296058 305 38023ft 438kts
06-Jun-17 11:04 34.868351 -118.406838 305 38062ft 437kts
06-Jun-17 11:05 34.910391 -118.471250 308 38089ft 439kts
06-Jun-17 11:06 34.990559 -118.583031 312 38108ft 441kts
06-Jun-17 11:07 35.101642 -118.649981 340 38110ft 457kts
06-Jun-17 11:08 35.223570 -118.693751 339 38098ft 456kts
06-Jun-17 11:09 35.344731 -118.738102 338 38051ft 455kts
06-Jun-17 11:10 35.465968 -118.782625 339 38011ft 455kts
06-Jun-17 11:11 35.552632 -118.814517 338 37996ft 454kts
06-Jun-17 11:12 35.628296 -118.842305 339 37994ft 455kts
06-Jun-17 11:13 35.730268 -118.882733 343 37997ft 455kts
06-Jun-17 11:14 35.828591 -118.911690 335 37993ft 452kts
06-Jun-17 11:15 35.948562 -118.960384 339 37986ft 457kts
06-Jun-17 11:16 36.070585 -119.004781 339 37987ft 454kts
06-Jun-17 11:17 36.191811 -119.049508 339 37987ft 456kts
06-Jun-17 11:18 36.313382 -119.094146 339 37982ft 456kts
06-Jun-17 11:19 36.434844 -119.138802 339 37980ft 456kts
06-Jun-17 11:20 36.556726 -119.183601 340 37987ft 454kts
06-Jun-17 11:21 36.678016 -119.228203 340 37992ft 456kts
06-Jun-17 11:22 36.799638 -119.272827 341 37996ft 456kts
06-Jun-17 11:23 36.923324 -119.308919 344 38004ft 457kts
06-Jun-17 11:24 37.047489 -119.344356 343 38020ft 456kts
06-Jun-17 11:25 37.170796 -119.380357 344 38044ft 454kts
06-Jun-17 11:26 37.294184 -119.416152 344 38066ft 457kts
06-Jun-17 11:27 37.417756 -119.452047 344 38103ft 456kts
06-Jun-17 11:28 37.541521 -119.488002 344 38133ft 456kts
06-Jun-17 11:29 37.665015 -119.523857 344 38142ft 456kts
06-Jun-17 11:30 37.788380 -119.559681 344 38132ft 454kts
06-Jun-17 11:31 37.911853 -119.595560 344 38121ft 456kts
06-Jun-17 11:32 38.035583 -119.631478 344 38107ft 456kts
06-Jun-17 11:33 38.159101 -119.667371 345 38139ft 456kts
06-Jun-17 11:34 38.282859 -119.703311 344 38140ft 456kts
06-Jun-17 11:35 38.406197 -119.739130 344 38154ft 456kts
06-Jun-17 11:36 38.530156 -119.775145 344 38158ft 457kts
06-Jun-17 11:37 38.654106 -119.811140 344 38159ft 457kts
06-Jun-17 11:38 38.778159 -119.847188 344 38172ft 458kts
06-Jun-17 11:39 38.902444 -119.883281 344 38183ft 458kts
06-Jun-17 11:40 39.027375 -119.919582 343 38167ft 460kts
06-Jun-17 11:41 39.152176 -119.955830 343 38148ft 460kts
06-Jun-17 11:42 39.276862 -119.992067 343 38145ft 461kts
06-Jun-17 11:43 39.401972 -120.028392 343 38125ft 461kts
06-Jun-17 11:44 39.527876 -120.064937 342 38121ft 463kts
06-Jun-17 11:45 39.653659 -120.101508 342 38123ft 464kts
06-Jun-17 11:46 39.779695 -120.138113 342 38124ft 464kts
06-Jun-17 11:47 39.906086 -120.174831 342 38122ft 464kts
06-Jun-17 11:48 40.032090 -120.211422 342 38116ft 463kts
06-Jun-17 11:49 40.157714 -120.247915 342 38111ft 462kts
06-Jun-17 11:50 40.283116 -120.284343 342 38106ft 463kts
06-Jun-17 11:51 40.409008 -120.321319 340 38101ft 459kts
06-Jun-17 11:52 40.529595 -120.373077 337 38101ft 456kts
06-Jun-17 11:53 40.649938 -120.424978 337 38101ft 456kts
06-Jun-17 11:54 40.770409 -120.475852 337 38100ft 455kts
06-Jun-17 11:55 40.890767 -120.527050 337 38104ft 454kts
06-Jun-17 11:56 41.010761 -120.577923 337 38105ft 452kts
06-Jun-17 11:57 41.130228 -120.628651 337 38093ft 451kts
06-Jun-17 11:58 41.249777 -120.679410 337 38095ft 451kts
06-Jun-17 11:59 41.369677 -120.730301 337 38099ft 452kts
06-Jun-17 12:00 41.489014 -120.780956 337 38099ft 450kts
06-Jun-17 12:01 41.608421 -120.831676 337 38102ft 450kts
06-Jun-17 12:02 41.727627 -120.882295 337 38104ft 451kts
06-Jun-17 12:03 41.847527 -120.933221 337 38108ft 451kts
06-Jun-17 12:04 41.966645 -120.983810 337 38110ft 450kts
06-Jun-17 12:05 42.085262 -121.034166 337 38109ft 445kts
06-Jun-17 12:06 42.203691 -121.084520 337 38108ft 447kts
06-Jun-17 12:07 42.322785 -121.135099 337 38105ft 448kts
06-Jun-17 12:08 42.441710 -121.185637 338 38104ft 448kts
06-Jun-17 12:09 42.560520 -121.236115 338 38103ft 448kts
06-Jun-17 12:10 42.679248 -121.286571 338 38097ft 447kts
06-Jun-17 12:11 42.798094 -121.337100 338 38093ft 447kts
06-Jun-17 12:12 42.916781 -121.387546 338 38089ft 447kts
06-Jun-17 12:13 43.035575 -121.438040 338 38083ft 447kts
06-Jun-17 12:14 43.154250 -121.488506 338 38077ft 447kts
06-Jun-17 12:15 43.273382 -121.539169 338 38065ft 447kts
06-Jun-17 12:16 43.392300 -121.589733 338 38058ft 448kts
06-Jun-17 12:17 43.511117 -121.640257 338 38051ft 447kts
06-Jun-17 12:18 43.629965 -121.690826 338 38047ft 447kts
06-Jun-17 12:19 43.749278 -121.741587 338 38037ft 447kts
06-Jun-17 12:20 43.867951 -121.792071 338 38035ft 446kts
06-Jun-17 12:21 43.986532 -121.842525 338 38035ft 446kts
06-Jun-17 12:22 44.105359 -121.893103 338 38034ft 447kts
06-Jun-17 12:23 44.224624 -121.943850 338 38043ft 447kts
06-Jun-17 12:24 44.343613 -121.994510 338 38025ft 447kts
06-Jun-17 12:25 44.462629 -122.045181 338 38022ft 448kts
06-Jun-17 12:26 44.581965 -122.095983 338 38041ft 449kts
06-Jun-17 12:27 44.701869 -122.147041 338 38037ft 450kts
06-Jun-17 12:28 44.821432 -122.197943 338 38033ft 449kts
06-Jun-17 12:29 44.941274 -122.249001 338 38021ft 451kts
06-Jun-17 12:30 45.061703 -122.300281 338 38015ft 452kts
06-Jun-17 12:31 45.181266 -122.351137 338 37929ft 443kts
06-Jun-17 12:32 45.300634 -122.402110 338 37997ft 455kts
06-Jun-17 12:33 45.421312 -122.453413 338 37975ft 453kts
06-Jun-17 12:34 45.544157 -122.505819 338 37982ft 466kts
06-Jun-17 12:35 45.670262 -122.556850 337 37985ft 474kts
06-Jun-17 12:36 45.798641 -122.606331 345 36033ft 487kts
06-Jun-17 12:37 45.935008 -122.640300 346 33526ft 492kts
06-Jun-17 12:38 46.068269 -122.671264 346 31036ft 476kts
06-Jun-17 12:39 46.197264 -122.698178 349 28442ft 460kts
06-Jun-17 12:40 46.321700 -122.722318 350 25613ft 443kts
06-Jun-17 12:41 46.443245 -122.727413 357 23329ft 432kts
06-Jun-17 12:42 46.561582 -122.730760 356 21063ft 417kts
06-Jun-17 12:43 46.675763 -122.735098 356 18949ft 405kts
06-Jun-17 12:44 46.786769 -122.730131 21 17667ft 401kts
06-Jun-17 12:45 46.872859 -122.634329 39 15749ft 384kts
06-Jun-17 12:46 46.960145 -122.548064 18 14529ft 375kts
06-Jun-17 12:47 47.058729 -122.508513 16 13043ft 363kts
06-Jun-17 12:48 47.157524 -122.484656 6 11503ft 360kts
06-Jun-17 12:49 47.255982 -122.470098 5 9971ft 351kts
06-Jun-17 12:50 47.351854 -122.455361 6 8480ft 341kts
06-Jun-17 12:51 47.445428 -122.455436 0 7028ft 332kts
06-Jun-17 12:52 47.534269 -122.455476 0 6032ft 275kts
06-Jun-17 12:53 47.589066 -122.435110 55 4644ft 199kts
06-Jun-17 12:54 47.591822 -122.357278 114 2167ft 188kts
06-Jun-17 12:55 47.550333 -122.309092 171 1717ft 201kts
06-Jun-17 12:56 47.493166 -122.307243 181 1397ft 177kts
06-Jun-17 12:57 47.455020 -122.307805 180 442ft 54kts
06-Jun-17 12:58 47.449902 -122.306164 177 442ft 23kts
06-Jun-17 12:59 47.448232 -122.303663 62 442ft 0kts

Navigation Log

Ident Type
Flight plan parsing failed, navigation log unavailable